33MI weather

Spectrum Health Reed City Hospital Heliport
Reed City, Michigan, United States

Public forecast

Using degrees Fahrenheit for public forecast. Weather courtesy of forecast.io.

METAR (pilot weather report)

Closest report is Roben Hood Airport, 9.4 nm (17.4 km) S. Retrieved 2019/06/25 09:35 UTC (0 seconds ago):

KRQB 250935Z AUTO 26007KT 10SM OVC008 16/15 A2970 RMK AO2 T01630152

TAF (pilot weather forecast)

Closest forecast is Manistee Co Blacker Airport, 39.3 nm (72.7 km) NW. Retrieved 2019/06/25 06:21 UTC (3 hours ago):

TAF KMBL 250520Z 2506/2606 22012G22KT P6SM -SHRA OVC018 FM250900 25010G19KT P6SM OVC019 FM251000 25009KT P6SM OVC080 FM251600 24011G19KT P6SM SCT250 FM252300 21012G21KT P6SM VCSH SCT050